Time;durP1;ratioP1;P1;durP2;ratioP2;P2;SDS_P1;SDS_P2;PMS_P1;PMS_P2;Temp;Humidity;BMP_temperature;BMP_pressure;BME280_temperature;BME280_humidity;BME280_pressure;Samples;Min_cycle;Max_cycle;Signal;HPM_P1;HPM_P2
2022/03/30 00:00:18;;;;;;;34.42;14.30;;;7.00;99.90;;;;;;5013234;28;20026;-63
2022/03/30 00:02:44;;;;;;;31.55;13.27;;;7.00;99.90;;;;;;5013158;28;20052;-63
2022/03/30 00:05:10;;;;;;;34.25;13.63;;;7.00;99.90;;;;;;5008263;28;20455;-62
2022/03/30 00:07:35;;;;;;;40.05;17.17;;;7.00;99.90;;;;;;5018209;28;20083;-63
2022/03/30 00:10:02;;;;;;;35.15;14.02;;;7.00;99.90;;;;;;5010299;28;20025;-63
2022/03/30 00:12:29;;;;;;;37.05;16.25;;;7.00;99.90;;;;;;5026133;28;20091;-63
2022/03/30 00:14:55;;;;;;;32.97;13.57;;;7.00;99.90;;;;;;5016629;28;20022;-63
2022/03/30 00:17:21;;;;;;;40.83;19.88;;;7.00;99.90;;;;;;5011903;28;20076;-63
2022/03/30 00:19:47;;;;;;;34.58;13.52;;;7.10;99.90;;;;;;5019601;28;20416;-64
2022/03/30 00:22:13;;;;;;;43.00;19.70;;;7.00;99.90;;;;;;5022898;28;20120;-64
2022/03/30 00:24:38;;;;;;;36.42;15.00;;;7.00;99.90;;;;;;5012841;28;20026;-63
2022/03/30 00:27:07;;;;;;;34.08;13.48;;;7.00;99.90;;;;;;5022478;28;20080;-63
2022/03/30 00:29:34;;;;;;;29.42;12.50;;;7.00;99.90;;;;;;5013577;28;20087;-63
2022/03/30 00:31:59;;;;;;;32.28;12.82;;;6.90;99.90;;;;;;5024621;28;20026;-64
2022/03/30 00:34:25;;;;;;;32.15;12.98;;;6.90;99.90;;;;;;5027057;28;20076;-63
2022/03/30 00:36:51;;;;;;;33.22;13.40;;;6.90;99.90;;;;;;5025055;28;20497;-63
2022/03/30 00:39:17;;;;;;;27.60;13.32;;;6.80;99.90;;;;;;5020181;28;20038;-63
2022/03/30 00:41:44;;;;;;;35.80;15.98;;;6.80;99.90;;;;;;5011834;28;20044;-63
2022/03/30 00:44:11;;;;;;;34.40;13.07;;;6.80;99.90;;;;;;5029307;28;20034;-63
2022/03/30 00:46:37;;;;;;;33.40;15.10;;;6.70;99.90;;;;;;5019772;28;20018;-63
2022/03/30 00:49:04;;;;;;;33.40;13.35;;;6.70;99.90;;;;;;5026342;28;20053;-63
2022/03/30 00:51:30;;;;;;;30.73;12.55;;;6.60;99.90;;;;;;5021676;28;20028;-63
2022/03/30 00:53:56;;;;;;;33.33;13.27;;;6.60;99.90;;;;;;5023970;28;20730;-63
2022/03/30 00:56:23;;;;;;;35.55;13.90;;;6.60;99.90;;;;;;5015944;28;20045;-63
2022/03/30 00:58:49;;;;;;;38.67;15.00;;;6.50;99.90;;;;;;5021952;28;20022;-63
2022/03/30 01:01:14;;;;;;;34.88;13.02;;;6.50;99.90;;;;;;5022948;28;20034;-63
2022/03/30 01:03:40;;;;;;;39.25;14.98;;;6.50;99.90;;;;;;5013862;28;20087;-62
2022/03/30 01:06:06;;;;;;;34.67;13.90;;;6.40;99.90;;;;;;5013494;28;20104;-63
2022/03/30 01:08:31;;;;;;;33.22;13.95;;;6.40;99.90;;;;;;5013653;28;20034;-63
2022/03/30 01:10:58;;;;;;;42.08;17.25;;;6.40;99.90;;;;;;5012716;28;20489;-63
2022/03/30 01:13:24;;;;;;;37.22;16.52;;;6.40;99.90;;;;;;5012586;28;20028;-63
2022/03/30 01:15:49;;;;;;;33.95;14.05;;;6.30;99.90;;;;;;5019846;28;20036;-63
2022/03/30 01:18:15;;;;;;;33.55;14.77;;;6.30;99.90;;;;;;5029902;28;20029;-64
2022/03/30 01:20:45;;;;;;;33.60;13.88;;;6.30;99.90;;;;;;5012377;28;20564;-63
2022/03/30 01:23:12;;;;;;;41.13;13.90;;;6.30;99.90;;;;;;5028470;28;20025;-64
2022/03/30 01:25:38;;;;;;;34.55;15.07;;;6.30;99.90;;;;;;5013063;28;20064;-63
2022/03/30 01:28:04;;;;;;;34.05;14.10;;;6.40;99.90;;;;;;5018839;28;20025;-63
2022/03/30 01:33:14;;;;;;;37.83;14.70;;;6.40;99.90;;;;;;5015578;28;20534;-64
2022/03/30 01:35:41;;;;;;;41.72;15.02;;;6.40;99.90;;;;;;5012487;28;20052;-63
2022/03/30 01:38:07;;;;;;;41.78;14.60;;;6.40;99.90;;;;;;5012025;28;20022;-63
2022/03/30 01:40:33;;;;;;;37.83;14.82;;;6.40;99.90;;;;;;5012597;28;20026;-67
2022/03/30 01:42:59;;;;;;;31.63;13.38;;;6.40;99.90;;;;;;5012703;28;20421;-68
2022/03/30 01:45:25;;;;;;;36.17;13.27;;;6.30;99.90;;;;;;5016579;28;20037;-66
2022/03/30 01:47:57;;;;;;;31.77;13.25;;;6.30;99.90;;;;;;5016969;28;20442;-63
2022/03/30 01:50:25;;;;;;;37.33;15.48;;;6.30;99.90;;;;;;5018244;28;20026;-65
2022/03/30 01:52:51;;;;;;;32.78;13.73;;;6.30;99.90;;;;;;5019129;28;20041;-63
2022/03/30 01:55:17;;;;;;;35.10;13.05;;;6.30;99.90;;;;;;5025842;28;20034;-69
2022/03/30 01:57:42;;;;;;;37.17;16.42;;;6.20;99.90;;;;;;5032437;28;20115;-63
2022/03/30 02:00:10;;;;;;;32.83;13.20;;;6.20;99.90;;;;;;5027532;28;20029;-66
2022/03/30 02:02:36;;;;;;;34.33;13.02;;;6.20;99.90;;;;;;5031147;28;20076;-66
2022/03/30 02:05:02;;;;;;;37.08;14.60;;;6.20;99.90;;;;;;5036556;28;20026;-70
2022/03/30 02:07:28;;;;;;;31.02;13.38;;;6.20;99.90;;;;;;5022287;28;20037;-65
2022/03/30 02:09:54;;;;;;;38.00;13.02;;;6.20;99.90;;;;;;5023289;28;20030;-65
2022/03/30 02:12:19;;;;;;;30.52;13.80;;;6.10;99.90;;;;;;5028670;28;20040;-66
2022/03/30 02:14:46;;;;;;;39.45;16.38;;;6.10;99.90;;;;;;5036991;28;20029;-64
2022/03/30 02:17:12;;;;;;;33.45;14.43;;;6.10;99.90;;;;;;5021752;28;20026;-67
2022/03/30 02:19:37;;;;;;;33.67;14.02;;;6.20;99.90;;;;;;5028513;28;20032;-66
2022/03/30 02:22:03;;;;;;;35.10;14.77;;;6.20;99.90;;;;;;5031511;28;20531;-66
2022/03/30 02:24:28;;;;;;;33.85;13.27;;;6.20;99.90;;;;;;5036932;28;20044;-65
2022/03/30 02:26:54;;;;;;;34.08;12.75;;;6.20;99.90;;;;;;5022596;28;20050;-67
2022/03/30 02:29:19;;;;;;;36.47;14.48;;;6.20;99.90;;;;;;5026717;28;20040;-65
2022/03/30 02:31:45;;;;;;;34.00;13.35;;;6.20;99.90;;;;;;5027735;28;20113;-63
2022/03/30 02:34:12;;;;;;;36.45;13.82;;;6.20;99.90;;;;;;5031475;28;20034;-64
2022/03/30 02:36:37;;;;;;;31.77;13.85;;;6.10;99.90;;;;;;5018405;28;20026;-65
2022/03/30 02:39:04;;;;;;;33.95;14.25;;;6.10;99.90;;;;;;5023992;28;20108;-67
2022/03/30 02:41:30;;;;;;;38.22;14.50;;;6.10;99.90;;;;;;5018222;28;20109;-66
2022/03/30 02:43:55;;;;;;;33.80;13.32;;;6.10;99.90;;;;;;5024294;28;20129;-66
2022/03/30 02:46:21;;;;;;;37.22;14.55;;;6.10;99.90;;;;;;5023543;28;20409;-65
2022/03/30 02:48:47;;;;;;;35.38;13.15;;;6.10;99.90;;;;;;5024731;28;20072;-66
2022/03/30 02:51:13;;;;;;;34.05;14.43;;;6.10;99.90;;;;;;5034472;28;20441;-64
2022/03/30 02:53:38;;;;;;;41.15;14.25;;;6.00;99.90;;;;;;5019078;28;20034;-65
2022/03/30 02:56:04;;;;;;;33.38;13.50;;;6.00;99.90;;;;;;5025627;28;20040;-66
2022/03/30 02:58:31;;;;;;;40.08;13.48;;;5.90;99.90;;;;;;5023327;28;20032;-66
2022/03/30 03:00:57;;;;;;;35.05;14.15;;;5.90;99.90;;;;;;5028420;28;20056;-67
2022/03/30 03:03:23;;;;;;;41.28;14.93;;;5.80;99.90;;;;;;5017262;28;20026;-63
2022/03/30 03:05:50;;;;;;;38.00;14.93;;;5.80;99.90;;;;;;5021012;28;20057;-64
2022/03/30 03:08:16;;;;;;;45.13;15.25;;;5.80;99.90;;;;;;5015080;28;20037;-65
2022/03/30 03:10:44;;;;;;;37.75;14.43;;;5.70;99.90;;;;;;5015318;28;20035;-66
2022/03/30 03:13:11;;;;;;;37.65;14.55;;;5.60;99.90;;;;;;5014114;28;20436;-66
2022/03/30 03:15:38;;;;;;;39.88;14.63;;;5.60;99.90;;;;;;5014677;28;20021;-66
2022/03/30 03:18:06;;;;;;;40.45;15.15;;;5.60;99.90;;;;;;5013671;28;20030;-65
2022/03/30 03:20:33;;;;;;;40.60;15.63;;;5.50;99.90;;;;;;5013660;28;20160;-65
2022/03/30 03:23:03;;;;;;;41.42;15.98;;;5.50;99.90;;;;;;5014395;28;20030;-67
2022/03/30 03:25:32;;;;;;;44.40;15.55;;;5.50;99.90;;;;;;5014635;28;20049;-68
2022/03/30 03:27:59;;;;;;;42.45;15.20;;;5.50;99.90;;;;;;5013694;28;20090;-64
2022/03/30 03:30:26;;;;;;;35.38;14.60;;;5.50;99.90;;;;;;5013895;28;20033;-65
2022/03/30 03:32:51;;;;;;;40.63;15.75;;;5.50;99.90;;;;;;5023583;28;20037;-66
2022/03/30 03:35:17;;;;;;;45.42;15.07;;;5.50;99.90;;;;;;5018242;28;20033;-65
2022/03/30 03:37:43;;;;;;;42.90;15.75;;;5.50;99.90;;;;;;5027526;28;20030;-68
2022/03/30 03:40:10;;;;;;;34.28;13.32;;;5.50;99.90;;;;;;5013376;28;20030;-66
2022/03/30 03:42:36;;;;;;;38.83;14.38;;;5.50;99.90;;;;;;5016273;28;20096;-65
2022/03/30 03:45:03;;;;;;;36.75;13.95;;;5.40;99.90;;;;;;5020563;28;20041;-64
2022/03/30 03:47:29;;;;;;;39.83;14.60;;;5.50;99.90;;;;;;5022791;28;20030;-68
2022/03/30 03:49:54;;;;;;;37.40;15.13;;;5.50;99.90;;;;;;5022225;28;20034;-64
2022/03/30 03:52:20;;;;;;;36.25;14.05;;;5.50;99.90;;;;;;5021853;28;20041;-64
2022/03/30 03:54:46;;;;;;;41.95;14.45;;;5.50;99.90;;;;;;5023510;28;20048;-65
2022/03/30 03:57:11;;;;;;;37.67;15.77;;;5.60;99.90;;;;;;5030009;28;20033;-65
2022/03/30 03:59:37;;;;;;;35.38;13.45;;;5.70;99.90;;;;;;5030978;28;20080;-63
2022/03/30 04:02:04;;;;;;;42.03;15.00;;;5.80;99.90;;;;;;5019421;28;20121;-66
2022/03/30 04:04:30;;;;;;;33.25;15.23;;;5.90;99.90;;;;;;5017834;28;20034;-66
2022/03/30 04:06:56;;;;;;;33.92;14.13;;;6.00;99.90;;;;;;5024169;28;20037;-67
2022/03/30 04:09:22;;;;;;;35.15;15.02;;;6.00;99.90;;;;;;5023158;28;20033;-66
2022/03/30 04:11:47;;;;;;;35.65;13.90;;;6.00;99.90;;;;;;5026362;28;20022;-66
2022/03/30 04:14:17;;;;;;;33.88;13.60;;;6.00;99.90;;;;;;5022810;28;20064;-65
2022/03/30 04:16:43;;;;;;;38.10;15.90;;;5.90;99.90;;;;;;5030014;28;20099;-64
2022/03/30 04:19:09;;;;;;;36.35;14.27;;;5.90;99.90;;;;;;5018354;28;20430;-65
2022/03/30 04:21:34;;;;;;;37.30;14.63;;;5.90;99.90;;;;;;5022014;28;20045;-64
2022/03/30 04:24:00;;;;;;;37.47;15.13;;;5.80;99.90;;;;;;5018056;28;20673;-67
2022/03/30 04:26:26;;;;;;;36.92;14.35;;;5.70;99.90;;;;;;5023797;28;20497;-69
2022/03/30 04:28:51;;;;;;;33.25;13.88;;;5.70;99.90;;;;;;5022830;28;20513;-67
2022/03/30 04:31:17;;;;;;;33.88;13.95;;;5.60;99.90;;;;;;5024733;28;20385;-65
2022/03/30 04:33:42;;;;;;;40.58;14.93;;;5.60;99.90;;;;;;5025417;28;20106;-66
2022/03/30 04:36:08;;;;;;;45.22;16.23;;;5.50;99.90;;;;;;5022157;28;20033;-64
2022/03/30 04:38:34;;;;;;;39.72;16.38;;;5.50;99.90;;;;;;5019857;28;20488;-69
2022/03/30 04:40:59;;;;;;;39.08;15.60;;;5.50;99.90;;;;;;5031020;28;20461;-65
2022/03/30 04:43:27;;;;;;;39.78;16.15;;;5.50;99.90;;;;;;5013023;28;20030;-64
2022/03/30 04:45:54;;;;;;;37.88;15.40;;;5.50;99.90;;;;;;5013039;28;20108;-65
2022/03/30 04:48:20;;;;;;;39.60;16.05;;;5.50;99.90;;;;;;5013309;28;20459;-66
2022/03/30 04:50:45;;;;;;;46.78;17.13;;;5.60;99.90;;;;;;5012987;28;20095;-68
2022/03/30 04:53:11;;;;;;;42.25;15.88;;;5.70;99.90;;;;;;5013275;28;20038;-68
2022/03/30 04:55:36;;;;;;;37.92;15.68;;;5.70;99.90;;;;;;5013583;28;20042;-69
2022/03/30 04:58:02;;;;;;;38.33;16.67;;;5.80;99.90;;;;;;5013310;28;20084;-64
2022/03/30 05:00:28;;;;;;;39.13;17.92;;;5.80;99.90;;;;;;5013077;28;20458;-64
2022/03/30 05:02:53;;;;;;;40.58;15.85;;;5.90;99.90;;;;;;5012651;28;20071;-65
2022/03/30 05:05:19;;;;;;;38.75;16.10;;;5.90;99.90;;;;;;5012805;28;20053;-65
2022/03/30 05:07:45;;;;;;;41.25;15.77;;;6.00;99.90;;;;;;5013125;28;20048;-69
2022/03/30 05:10:13;;;;;;;41.17;15.05;;;6.00;99.90;;;;;;5012583;28;20030;-67
2022/03/30 05:12:39;;;;;;;40.72;16.40;;;6.10;99.90;;;;;;5012586;28;20373;-65
2022/03/30 05:15:05;;;;;;;40.85;17.83;;;6.10;99.90;;;;;;5013174;28;20029;-65
2022/03/30 05:17:31;;;;;;;38.17;17.50;;;6.10;99.90;;;;;;5013225;28;20117;-66
2022/03/30 05:19:56;;;;;;;36.33;16.60;;;6.10;99.90;;;;;;5012906;28;20137;-65
2022/03/30 05:22:22;;;;;;;37.97;16.33;;;6.10;99.90;;;;;;5011727;28;20046;-65
2022/03/30 05:24:48;;;;;;;37.10;16.60;;;6.10;99.90;;;;;;5012390;28;20458;-67
2022/03/30 05:27:14;;;;;;;39.88;17.08;;;6.10;99.90;;;;;;5011167;28;20034;-68
2022/03/30 05:29:40;;;;;;;41.25;16.67;;;6.10;99.90;;;;;;5012622;28;20037;-66
2022/03/30 05:32:06;;;;;;;38.35;15.50;;;6.10;99.90;;;;;;5022096;28;20164;-66
2022/03/30 05:34:31;;;;;;;39.40;15.05;;;6.10;99.90;;;;;;5012224;28;20025;-65
2022/03/30 05:36:58;;;;;;;39.58;16.02;;;6.10;99.90;;;;;;5011751;28;20036;-64
2022/03/30 05:39:24;;;;;;;39.60;14.98;;;6.10;99.90;;;;;;5011669;28;20390;-64
2022/03/30 05:41:50;;;;;;;43.63;16.25;;;6.10;99.90;;;;;;5011107;28;20045;-64
2022/03/30 05:44:16;;;;;;;37.10;15.32;;;6.10;99.90;;;;;;5010842;28;20045;-63
2022/03/30 05:46:41;;;;;;;34.72;15.23;;;6.20;99.90;;;;;;5017609;28;20038;-63
2022/03/30 05:49:07;;;;;;;40.17;16.80;;;6.20;99.90;;;;;;5014459;28;20054;-64
2022/03/30 05:51:33;;;;;;;37.28;14.68;;;6.20;99.90;;;;;;5017240;28;20022;-64
2022/03/30 05:53:59;;;;;;;36.83;14.40;;;6.30;99.90;;;;;;5013945;28;20037;-64
2022/03/30 05:59:09;;;;;;;32.65;13.13;;;6.40;99.90;;;;;;5019146;28;20167;-64
2022/03/30 06:01:35;;;;;;;34.03;13.60;;;6.40;99.90;;;;;;5013643;28;20081;-64
2022/03/30 06:04:01;;;;;;;36.70;14.27;;;6.50;99.90;;;;;;5027402;28;20140;-63
2022/03/30 06:06:28;;;;;;;23.80;10.18;;;6.50;99.90;;;;;;5018441;28;20013;-64
2022/03/30 06:08:54;;;;;;;25.05;9.00;;;6.60;99.90;;;;;;5029164;28;20116;-66
2022/03/30 06:11:19;;;;;;;24.83;9.90;;;6.70;99.90;;;;;;5018729;28;20033;-64
2022/03/30 06:13:45;;;;;;;24.35;9.77;;;6.80;99.90;;;;;;5024836;28;20030;-63
2022/03/30 06:16:13;;;;;;;22.48;8.60;;;6.80;99.90;;;;;;5028018;28;20762;-64
2022/03/30 06:18:39;;;;;;;18.02;7.88;;;7.00;99.90;;;;;;5020310;28;20114;-63
2022/03/30 06:21:05;;;;;;;19.08;8.30;;;7.00;99.90;;;;;;5020927;28;20092;-63
2022/03/30 06:23:31;;;;;;;20.52;7.22;;;7.10;99.90;;;;;;5026889;28;20029;-64
2022/03/30 06:25:57;;;;;;;12.60;5.20;;;7.20;99.90;;;;;;5015368;28;20042;-63
2022/03/30 06:28:26;;;;;;;13.02;5.72;;;7.30;99.90;;;;;;5028423;28;20096;-64
2022/03/30 06:30:52;;;;;;;17.33;6.00;;;7.50;99.90;;;;;;5023239;28;20017;-63
2022/03/30 06:33:17;;;;;;;11.13;3.95;;;7.50;99.90;;;;;;5032925;28;20572;-64
2022/03/30 06:35:43;;;;;;;10.57;3.53;;;7.60;99.90;;;;;;5018775;28;20101;-64
2022/03/30 06:38:09;;;;;;;7.00;3.00;;;7.60;99.90;;;;;;5023924;28;20025;-64
2022/03/30 06:40:34;;;;;;;7.55;2.83;;;7.60;99.90;;;;;;5028317;28;20041;-64
2022/03/30 06:43:00;;;;;;;5.15;2.10;;;7.70;99.90;;;;;;5041420;28;20032;-64
2022/03/30 06:45:28;;;;;;;4.68;2.40;;;7.70;99.90;;;;;;5020478;28;20030;-64
2022/03/30 06:47:54;;;;;;;7.15;2.55;;;7.80;99.90;;;;;;5031765;28;20033;-64
2022/03/30 06:50:20;;;;;;;9.68;3.78;;;7.90;99.90;;;;;;5019443;28;20079;-64
2022/03/30 06:52:46;;;;;;;5.70;2.70;;;8.00;99.90;;;;;;5026140;28;20429;-64
2022/03/30 06:55:14;;;;;;;7.05;2.85;;;8.10;99.90;;;;;;5026653;28;20033;-64
2022/03/30 06:57:43;;;;;;;10.60;3.00;;;8.10;99.90;;;;;;5018934;28;20057;-64
2022/03/30 07:00:13;;;;;;;5.25;2.58;;;8.20;99.90;;;;;;5002938;28;20454;-64
2022/03/30 07:02:39;;;;;;;9.40;2.67;;;8.30;99.90;;;;;;5026992;28;20162;-65
2022/03/30 07:05:05;;;;;;;4.50;2.28;;;8.30;99.90;;;;;;5026526;28;20037;-64
2022/03/30 07:10:15;;;;;;;3.60;2.10;;;8.40;99.90;;;;;;5030132;28;20530;-64
2022/03/30 07:12:45;;;;;;;4.28;1.45;;;8.50;99.90;;;;;;5038311;28;20109;-63
2022/03/30 07:15:12;;;;;;;4.10;1.73;;;8.60;99.90;;;;;;5022249;28;20072;-63
2022/03/30 07:17:43;;;;;;;3.10;1.52;;;8.60;99.90;;;;;;5030506;28;20025;-63
2022/03/30 07:20:10;;;;;;;2.75;1.73;;;8.80;99.90;;;;;;5014844;28;20018;-64
2022/03/30 07:22:36;;;;;;;5.72;2.20;;;8.90;99.90;;;;;;5014957;28;20049;-64
2022/03/30 07:25:02;;;;;;;5.57;1.67;;;9.00;99.90;;;;;;5014843;28;20517;-64
2022/03/30 07:27:28;;;;;;;2.28;1.33;;;9.10;99.90;;;;;;5015212;28;20025;-64
2022/03/30 07:29:54;;;;;;;4.40;1.70;;;9.20;99.90;;;;;;5015125;28;20091;-64
2022/03/30 07:32:19;;;;;;;3.67;1.67;;;9.20;99.90;;;;;;5013719;28;20026;-63
2022/03/30 07:34:45;;;;;;;3.05;1.80;;;9.30;99.90;;;;;;5001307;28;20126;-63
2022/03/30 07:37:11;;;;;;;3.45;1.80;;;9.40;99.90;;;;;;5015106;28;20026;-64
2022/03/30 07:39:37;;;;;;;4.32;1.55;;;9.60;99.90;;;;;;5020279;28;20525;-64
2022/03/30 07:42:03;;;;;;;3.22;1.65;;;9.80;99.90;;;;;;5009500;28;20049;-64
2022/03/30 07:44:29;;;;;;;3.03;1.63;;;10.00;99.90;;;;;;5017077;28;20041;-63
2022/03/30 07:46:55;;;;;;;5.10;1.92;;;10.20;99.90;;;;;;5011335;28;20494;-66
2022/03/30 07:49:22;;;;;;;2.88;2.10;;;10.50;99.90;;;;;;5002412;28;20017;-64
2022/03/30 07:51:47;;;;;;;4.35;1.85;;;10.80;99.90;;;;;;5012993;28;20018;-65
2022/03/30 07:54:13;;;;;;;3.13;1.20;;;11.20;99.90;;;;;;5029483;28;20458;-63
2022/03/30 07:56:38;;;;;;;2.40;1.13;;;11.50;99.90;;;;;;5027975;28;20025;-63
2022/03/30 07:59:04;;;;;;;3.03;1.38;;;11.80;99.90;;;;;;5017046;28;20026;-66
2022/03/30 08:01:30;;;;;;;1.20;0.93;;;11.90;99.90;;;;;;5025824;28;20149;-64
2022/03/30 08:03:56;;;;;;;5.60;1.50;;;11.90;99.90;;;;;;5020083;28;20037;-64
2022/03/30 08:06:22;;;;;;;2.95;1.40;;;12.00;99.90;;;;;;5014859;28;20439;-64
2022/03/30 08:08:48;;;;;;;4.20;1.20;;;12.00;99.90;;;;;;5015071;28;20026;-64
2022/03/30 08:11:13;;;;;;;3.17;1.35;;;12.00;99.90;;;;;;5014115;28;20033;-63
2022/03/30 08:13:39;;;;;;;3.58;1.33;;;12.10;99.90;;;;;;5027666;28;20359;-62
2022/03/30 08:16:05;;;;;;;3.60;1.55;;;12.10;99.90;;;;;;5009901;28;20041;-63
2022/03/30 08:18:30;;;;;;;5.25;1.58;;;12.10;99.90;;;;;;5026277;28;20026;-63
2022/03/30 08:23:40;;;;;;;5.90;2.05;;;12.10;99.90;;;;;;5026785;28;20069;-63
2022/03/30 08:26:06;;;;;;;4.70;1.70;;;12.20;99.90;;;;;;5022606;28;20077;-63
2022/03/30 08:28:32;;;;;;;6.35;2.25;;;12.40;99.90;;;;;;5035286;28;20105;-64
2022/03/30 08:30:58;;;;;;;3.45;1.95;;;12.40;99.90;;;;;;5009612;28;20049;-64
2022/03/30 08:33:26;;;;;;;6.88;2.30;;;12.60;99.90;;;;;;5016526;28;20457;-64
2022/03/30 08:35:54;;;;;;;5.53;2.00;;;12.70;99.90;;;;;;5018694;28;20505;-63
2022/03/30 08:38:20;;;;;;;3.63;1.90;;;13.10;99.90;;;;;;5024375;28;20072;-63
2022/03/30 08:40:46;;;;;;;4.78;2.10;;;13.40;99.90;;;;;;5016068;28;20029;-62
2022/03/30 08:43:11;;;;;;;4.82;1.98;;;13.60;99.90;;;;;;5029348;28;20033;-63
2022/03/30 08:45:37;;;;;;;3.22;1.60;;;13.90;99.80;;;;;;5014288;28;20026;-65
2022/03/30 08:48:04;;;;;;;4.75;2.05;;;14.10;99.60;;;;;;5010310;28;20455;-63
2022/03/30 08:50:30;;;;;;;5.63;1.77;;;14.40;99.00;;;;;;5010999;28;20108;-63
2022/03/30 08:53:02;;;;;;;2.67;1.77;;;14.60;98.70;;;;;;5028610;28;20021;-64
2022/03/30 08:55:27;;;;;;;6.32;1.98;;;14.70;98.10;;;;;;5019509;28;20029;-63
2022/03/30 08:57:54;;;;;;;4.85;1.95;;;14.80;97.90;;;;;;5020429;28;20378;-63
2022/03/30 09:00:22;;;;;;;3.90;1.88;;;14.90;97.90;;;;;;5024637;28;20028;-63
2022/03/30 09:02:58;;;;;;;2.55;1.60;;;15.00;97.60;;;;;;5028308;28;20056;-63
2022/03/30 09:05:29;;;;;;;4.18;1.85;;;15.30;97.20;;;;;;5011411;28;20496;-64
2022/03/30 09:08:07;;;;;;;4.35;1.70;;;15.60;96.20;;;;;;5023576;28;20080;-64
2022/03/30 09:10:33;;;;;;;8.05;2.30;;;15.70;96.00;;;;;;5025661;28;20029;-63
2022/03/30 09:12:58;;;;;;;4.03;1.92;;;15.80;95.90;;;;;;5025900;28;20087;-63
2022/03/30 09:15:25;;;;;;;3.50;1.80;;;15.90;95.50;;;;;;5027372;28;20089;-63
2022/03/30 09:17:59;;;;;;;5.28;2.10;;;15.80;95.40;;;;;;5018190;28;20027;-63
2022/03/30 09:20:25;;;;;;;4.32;2.33;;;15.50;95.60;;;;;;5010678;28;20033;-63
2022/03/30 09:22:54;;;;;;;3.38;1.70;;;15.40;96.30;;;;;;5009801;28;20405;-62
2022/03/30 09:25:23;;;;;;;3.83;1.83;;;15.30;95.80;;;;;;5012840;28;20057;-63
2022/03/30 09:27:52;;;;;;;5.85;1.70;;;15.30;95.10;;;;;;5016256;28;20112;-62
2022/03/30 09:30:19;;;;;;;4.82;1.65;;;15.30;94.90;;;;;;5020241;28;20419;-64
2022/03/30 09:32:46;;;;;;;7.18;2.13;;;15.40;94.70;;;;;;5001812;28;20057;-63
2022/03/30 09:35:25;;;;;;;3.35;1.73;;;15.70;94.50;;;;;;5000170;28;20033;-62
2022/03/30 09:38:14;;;;;;;3.75;1.25;;;16.00;94.10;;;;;;5010327;28;20034;-63
2022/03/30 09:40:49;;;;;;;2.90;1.48;;;16.00;93.00;;;;;;5007483;28;20084;-63
2022/03/30 09:43:23;;;;;;;3.22;1.75;;;15.70;93.50;;;;;;5010867;28;20056;-63
2022/03/30 09:46:05;;;;;;;1.73;1.23;;;15.60;93.70;;;;;;5003042;28;20099;-64
2022/03/30 09:48:56;;;;;;;5.90;1.80;;;15.60;93.40;;;;;;5005659;28;20128;-64
2022/03/30 09:51:31;;;;;;;2.88;1.60;;;15.60;93.60;;;;;;5018798;28;20475;-64
2022/03/30 09:53:58;;;;;;;4.43;1.65;;;15.60;93.80;;;;;;5012015;28;20030;-63
2022/03/30 09:56:24;;;;;;;4.43;1.30;;;15.40;93.40;;;;;;5011524;28;20430;-63
2022/03/30 09:59:00;;;;;;;3.97;1.25;;;15.30;93.70;;;;;;5010253;28;20058;-63
2022/03/30 10:01:29;;;;;;;2.47;1.15;;;15.30;93.50;;;;;;5019163;28;20485;-65
2022/03/30 10:04:00;;;;;;;2.10;1.20;;;15.30;93.70;;;;;;4995572;28;20030;-66
2022/03/30 10:06:28;;;;;;;5.22;1.35;;;15.10;93.80;;;;;;5018041;28;20370;-65
2022/03/30 10:08:56;;;;;;;3.67;1.30;;;15.10;93.90;;;;;;5005233;28;20406;-63
2022/03/30 10:11:24;;;;;;;4.88;1.20;;;15.30;93.40;;;;;;5015294;28;20092;-66
2022/03/30 10:13:58;;;;;;;3.40;1.00;;;15.40;93.30;;;;;;5011489;28;20042;-65
2022/03/30 10:16:24;;;;;;;3.03;1.10;;;15.70;93.30;;;;;;5009736;28;20088;-66
2022/03/30 10:18:51;;;;;;;4.03;1.60;;;15.90;92.60;;;;;;5015581;28;20371;-68
2022/03/30 10:21:24;;;;;;;3.15;1.40;;;16.30;92.60;;;;;;5008727;28;20108;-67
2022/03/30 10:24:11;;;;;;;4.20;1.42;;;16.60;92.00;;;;;;5014340;28;20026;-66
2022/03/30 10:26:58;;;;;;;2.75;1.55;;;17.00;91.70;;;;;;5015870;28;20482;-63
2022/03/30 10:29:26;;;;;;;4.47;1.42;;;17.30;91.00;;;;;;5011175;28;20037;-64
2022/03/30 10:32:15;;;;;;;3.03;1.40;;;17.70;90.50;;;;;;5009246;28;20030;-64
2022/03/30 10:35:05;;;;;;;2.63;1.20;;;17.80;89.10;;;;;;5017514;28;20368;-64
2022/03/30 10:37:34;;;;;;;2.88;1.35;;;17.90;87.50;;;;;;5015351;28;20490;-63
2022/03/30 10:40:03;;;;;;;7.68;1.65;;;17.90;87.30;;;;;;5019888;28;20079;-63
2022/03/30 10:42:52;;;;;;;2.25;1.33;;;17.80;87.30;;;;;;5013554;28;20045;-67
2022/03/30 10:45:27;;;;;;;2.83;1.35;;;17.70;87.30;;;;;;5028070;28;20064;-63
2022/03/30 10:48:17;;;;;;;3.55;1.20;;;17.60;88.00;;;;;;5014475;28;20033;-65
2022/03/30 10:50:43;;;;;;;1.75;1.23;;;17.50;87.40;;;;;;5013802;28;20026;-65
2022/03/30 10:53:30;;;;;;;8.10;1.60;;;17.70;87.90;;;;;;5021991;28;20394;-64
2022/03/30 10:56:09;;;;;;;4.78;1.38;;;17.90;86.90;;;;;;5035495;28;20029;-64
2022/03/30 10:58:55;;;;;;;2.97;1.30;;;17.90;86.30;;;;;;5028784;28;20034;-63
2022/03/30 11:01:29;;;;;;;4.00;1.20;;;17.90;86.40;;;;;;5015664;28;20044;-64
2022/03/30 11:04:05;;;;;;;4.68;1.58;;;18.10;85.70;;;;;;5014767;28;20033;-64
2022/03/30 11:06:34;;;;;;;5.38;1.92;;;18.10;83.90;;;;;;5014005;28;20030;-63
2022/03/30 11:09:01;;;;;;;2.78;1.00;;;18.10;84.20;;;;;;4995776;28;20038;-64
2022/03/30 11:11:35;;;;;;;4.63;1.60;;;18.10;83.20;;;;;;5029392;28;20112;-64
2022/03/30 11:14:31;;;;;;;6.75;1.80;;;18.10;83.80;;;;;;5034958;28;20025;-64
2022/03/30 11:17:01;;;;;;;4.90;1.45;;;18.00;82.70;;;;;;5026106;28;20022;-64
2022/03/30 11:19:29;;;;;;;1.45;1.05;;;17.80;83.00;;;;;;5013675;28;20022;-63
2022/03/30 11:22:26;;;;;;;2.85;1.35;;;17.60;82.20;;;;;;5015166;28;20042;-67
2022/03/30 11:25:13;;;;;;;2.97;1.10;;;17.40;82.40;;;;;;5011303;28;20034;-65
2022/03/30 11:27:39;;;;;;;1.67;0.90;;;17.50;82.00;;;;;;5014703;28;20153;-65
2022/03/30 11:30:18;;;;;;;3.22;1.00;;;17.60;79.90;;;;;;5013547;28;20022;-63
2022/03/30 11:32:49;;;;;;;2.95;1.45;;;17.70;80.40;;;;;;5012249;28;20022;-63
2022/03/30 11:35:17;;;;;;;2.70;1.30;;;17.80;81.10;;;;;;5012684;28;20160;-67
2022/03/30 11:37:46;;;;;;;3.30;1.77;;;17.90;80.80;;;;;;4992623;28;20039;-63
2022/03/30 11:40:20;;;;;;;4.93;1.60;;;17.90;80.70;;;;;;5004617;28;20482;-63
2022/03/30 11:42:48;;;;;;;4.47;1.63;;;17.80;80.40;;;;;;5012719;28;20460;-65
2022/03/30 11:45:16;;;;;;;3.08;1.33;;;18.00;80.20;;;;;;5025969;28;20847;-62
2022/03/30 11:47:54;;;;;;;8.13;1.67;;;18.20;80.40;;;;;;5012978;28;20030;-66
2022/03/30 11:50:36;;;;;;;3.22;1.35;;;18.10;80.40;;;;;;5014835;28;20029;-66
2022/03/30 11:53:06;;;;;;;4.32;1.50;;;18.00;80.10;;;;;;5014373;28;20453;-65
2022/03/30 11:55:49;;;;;;;4.65;1.60;;;17.80;80.40;;;;;;5014664;28;20027;-63
2022/03/30 11:58:30;;;;;;;8.13;1.55;;;17.60;81.00;;;;;;5013179;28;20022;-64
2022/03/30 12:00:57;;;;;;;1.60;1.20;;;17.40;81.50;;;;;;5029845;28;20040;-62
2022/03/30 12:03:24;;;;;;;3.55;1.30;;;17.50;80.80;;;;;;5014717;28;20072;-63
2022/03/30 12:05:56;;;;;;;5.38;1.35;;;17.70;81.40;;;;;;5028587;28;20036;-64
2022/03/30 12:08:23;;;;;;;1.90;1.15;;;17.90;80.80;;;;;;5014465;28;20034;-66
2022/03/30 12:10:49;;;;;;;2.75;1.02;;;18.20;79.70;;;;;;5014100;28;20022;-67
2022/03/30 12:13:23;;;;;;;6.63;1.70;;;18.20;79.10;;;;;;5007279;28;20126;-65
2022/03/30 12:16:06;;;;;;;5.18;1.45;;;18.10;79.70;;;;;;5007272;28;20030;-63
2022/03/30 12:18:32;;;;;;;2.03;0.90;;;18.30;79.30;;;;;;5008144;28;20037;-66
2022/03/30 12:21:02;;;;;;;4.20;1.33;;;18.40;77.90;;;;;;5012920;28;20029;-63
2022/03/30 12:23:28;;;;;;;3.22;1.13;;;18.30;78.60;;;;;;5008701;28;20040;-65
2022/03/30 12:25:54;;;;;;;4.85;1.23;;;18.20;78.30;;;;;;5013536;28;20049;-65
2022/03/30 12:28:33;;;;;;;3.45;1.35;;;18.10;78.90;;;;;;5013458;28;20034;-63
2022/03/30 12:31:00;;;;;;;3.38;1.30;;;18.10;79.10;;;;;;5011167;28;20026;-65
2022/03/30 12:33:25;;;;;;;4.53;1.40;;;18.00;78.80;;;;;;5010304;28;20037;-63
2022/03/30 12:35:54;;;;;;;5.22;1.55;;;18.00;78.60;;;;;;5013415;28;20042;-66
2022/03/30 12:38:22;;;;;;;4.72;1.60;;;18.10;78.70;;;;;;5013695;28;20076;-64
2022/03/30 12:40:52;;;;;;;3.92;1.55;;;18.20;77.80;;;;;;5011232;28;20084;-67
2022/03/30 12:43:24;;;;;;;4.07;1.45;;;18.30;77.60;;;;;;5012855;28;20052;-64
2022/03/30 12:45:54;;;;;;;4.00;1.20;;;18.20;77.30;;;;;;5014998;28;20359;-64
2022/03/30 12:48:29;;;;;;;2.00;1.10;;;18.20;76.80;;;;;;5012925;28;20041;-62
2022/03/30 12:50:58;;;;;;;3.65;1.52;;;18.30;76.80;;;;;;5010228;28;20109;-63
2022/03/30 12:53:34;;;;;;;3.38;1.42;;;18.40;76.50;;;;;;5005069;28;20058;-67
2022/03/30 12:56:18;;;;;;;4.28;1.10;;;18.30;77.20;;;;;;5012532;28;20026;-64
2022/03/30 12:59:00;;;;;;;5.22;1.30;;;18.20;77.20;;;;;;5012863;28;20546;-66